createdAt,value
2019-04-06T00:00:24.386Z,67.52
2019-04-06T00:01:24.369Z,66.91
2019-04-06T00:02:24.366Z,67.52
2019-04-06T00:03:24.349Z,67.22
2019-04-06T00:04:24.336Z,67.43
2019-04-06T00:05:24.325Z,67.32
2019-04-06T00:06:24.314Z,67.02
2019-04-06T00:07:24.304Z,66.91
2019-04-06T00:08:24.294Z,66.82
2019-04-06T00:09:24.281Z,66.82
2019-04-06T00:10:24.276Z,66.71
2019-04-06T00:11:24.264Z,66.82
2019-04-06T00:12:24.248Z,67.12
2019-04-06T00:13:24.239Z,66.91
2019-04-06T00:14:24.238Z,65.90
2019-04-06T00:15:24.215Z,65.49
2019-04-06T00:16:24.211Z,65.90
2019-04-06T00:17:24.196Z,65.80
2019-04-06T00:18:24.181Z,66.00
2019-04-06T00:19:24.176Z,65.29
2019-04-06T00:20:24.165Z,65.39
2019-04-06T00:21:24.182Z,64.78
2019-04-06T00:22:24.143Z,64.68
2019-04-06T00:23:24.128Z,64.78
2019-04-06T00:24:24.120Z,64.58
2019-04-06T00:25:24.103Z,64.37
2019-04-06T00:26:24.095Z,64.48
2019-04-06T00:27:24.706Z,64.48
2019-04-06T00:28:24.080Z,64.48
2019-04-06T00:29:24.066Z,64.48
2019-04-06T00:30:24.048Z,64.27
2019-04-06T00:31:24.037Z,64.17
2019-04-06T00:32:24.028Z,63.46
2019-04-06T00:33:24.015Z,63.76
2019-04-06T00:34:24.010Z,64.07
2019-04-06T00:35:23.995Z,64.24
2019-04-06T00:36:23.984Z,63.76
2019-04-06T00:37:23.971Z,63.56
2019-04-06T00:38:23.962Z,62.75
2019-04-06T00:39:23.951Z,63.56
2019-04-06T00:40:23.948Z,63.66
2019-04-06T00:41:23.928Z,63.26
2019-04-06T00:42:23.919Z,63.36
2019-04-06T00:43:23.910Z,63.05
2019-04-06T00:44:23.902Z,63.26
2019-04-06T00:45:23.884Z,63.05
2019-04-06T00:46:23.878Z,63.15
2019-04-06T00:47:23.915Z,63.15
2019-04-06T00:48:23.850Z,62.95
2019-04-06T00:49:23.841Z,63.05
2019-04-06T00:50:23.867Z,62.85
2019-04-06T00:51:23.831Z,62.54
2019-04-06T00:52:23.807Z,62.44
2019-04-06T00:53:23.797Z,62.54
2019-04-06T00:54:23.786Z,62.34
2019-04-06T00:55:23.774Z,62.54
2019-04-06T00:56:23.780Z,62.75
2019-04-06T00:57:23.749Z,62.85
2019-04-06T00:58:23.739Z,62.85
2019-04-06T00:59:23.732Z,62.04
2019-04-06T01:00:23.716Z,62.13
2019-04-06T01:01:23.711Z,62.24
2019-04-06T01:02:23.697Z,62.34
2019-04-06T01:03:23.687Z,62.13
2019-04-06T01:04:23.675Z,62.24
2019-04-06T01:05:23.664Z,61.43
2019-04-06T01:06:23.657Z,61.63
2019-04-06T01:07:23.654Z,61.83
2019-04-06T01:08:23.641Z,61.83
2019-04-06T01:09:23.626Z,61.12
2019-04-06T01:10:23.615Z,61.12
2019-04-06T01:11:23.598Z,61.02
2019-04-06T01:12:23.592Z,61.43
2019-04-06T01:13:23.574Z,61.02
2019-04-06T01:14:23.572Z,60.61
2019-04-06T01:15:23.558Z,61.32
2019-04-06T01:16:23.540Z,60.58
2019-04-06T01:17:23.534Z,61.22
2019-04-06T01:18:23.534Z,61.32
2019-04-06T01:19:23.513Z,61.22
2019-04-06T01:20:23.508Z,61.12
2019-04-06T01:21:23.486Z,61.02
2019-04-06T01:22:23.478Z,61.09
2019-04-06T01:23:23.482Z,61.22
2019-04-06T01:24:23.464Z,60.68
2019-04-06T01:25:23.444Z,60.38
2019-04-06T01:26:23.431Z,60.99
2019-04-06T01:27:23.421Z,60.68
2019-04-06T01:28:23.409Z,60.30
2019-04-06T01:29:23.396Z,60.28
2019-04-06T01:30:23.387Z,60.48
2019-04-06T01:32:23.374Z,60.48
2019-04-06T01:33:23.376Z,60.18
2019-04-06T01:34:23.355Z,60.79
2019-04-06T01:35:23.337Z,59.97
2019-04-06T01:36:23.321Z,59.77
2019-04-06T01:37:23.319Z,59.77
2019-04-06T01:39:23.288Z,59.46
2019-04-06T01:40:23.287Z,59.46
2019-04-06T01:42:23.268Z,59.46
2019-04-06T01:43:23.244Z,59.67
2019-04-06T01:44:23.241Z,59.36
2019-04-06T01:45:23.226Z,59.57
2019-04-06T01:46:23.215Z,59.36
2019-04-06T01:48:23.216Z,59.77
2019-04-06T01:49:23.209Z,59.87
2019-04-06T01:50:23.213Z,59.36
2019-04-06T01:53:23.163Z,59.77
2019-04-06T01:54:23.167Z,59.49
2019-04-06T01:55:23.109Z,59.36
2019-04-06T01:56:23.099Z,59.67
2019-04-06T01:58:23.079Z,59.77
2019-04-06T01:59:23.091Z,59.77
2019-04-06T02:00:23.062Z,60.07
2019-04-06T02:01:23.049Z,59.77
2019-04-06T02:02:23.042Z,59.46
2019-04-06T02:03:23.030Z,59.60
2019-04-06T02:05:23.006Z,59.69
2019-04-06T02:06:22.987Z,59.67
2019-04-06T02:07:22.988Z,59.46
2019-04-06T02:08:22.966Z,59.60
2019-04-06T02:09:22.953Z,59.49
2019-04-06T02:10:22.947Z,59.57
2019-04-06T02:11:22.935Z,59.49
2019-04-06T02:12:22.922Z,59.80
2019-04-06T02:13:22.920Z,59.60
2019-04-06T02:14:22.905Z,60.00
2019-04-06T02:15:22.891Z,59.90
2019-04-06T02:16:22.882Z,59.69
2019-04-06T02:18:22.863Z,59.90
2019-04-06T02:19:22.844Z,59.90
2019-04-06T02:20:22.842Z,60.00
2019-04-06T02:21:22.821Z,60.21
2019-04-06T02:22:22.810Z,60.00
2019-04-06T02:23:22.807Z,59.80
2019-04-06T02:24:22.789Z,60.00
2019-04-06T02:25:22.776Z,59.80
2019-04-06T02:26:30.159Z,60.51
2019-04-06T02:27:23.783Z,60.51
2019-04-06T02:28:22.749Z,60.03
2019-04-06T02:29:22.736Z,60.74
2019-04-06T02:30:22.722Z,60.74
2019-04-06T02:31:22.714Z,60.64
2019-04-06T02:32:22.904Z,60.74
2019-04-06T02:33:22.842Z,60.74
2019-04-06T02:35:22.667Z,60.54
2019-04-06T02:36:22.664Z,60.61
2019-04-06T02:37:22.645Z,60.91
2019-04-06T02:38:22.666Z,60.44
2019-04-06T02:39:22.633Z,61.15
2019-04-06T02:40:22.612Z,60.84
2019-04-06T02:41:22.601Z,61.25
2019-04-06T02:42:22.597Z,60.94
2019-04-06T02:43:22.594Z,61.05
2019-04-06T02:44:22.617Z,61.25
2019-04-06T02:45:22.565Z,60.64
2019-04-06T02:46:22.549Z,60.94
2019-04-06T02:47:22.535Z,61.05
2019-04-06T02:48:22.534Z,61.35
2019-04-06T02:49:22.523Z,61.15
2019-04-06T02:50:22.504Z,61.59
2019-04-06T02:51:22.490Z,61.59
2019-04-06T02:52:22.582Z,61.05
2019-04-06T02:53:22.481Z,61.05
2019-04-06T02:54:22.463Z,61.07
2019-04-06T02:55:22.443Z,61.18
2019-04-06T02:56:22.598Z,61.89
2019-04-06T02:57:22.418Z,61.79
2019-04-06T02:58:23.605Z,61.89
2019-04-06T02:59:22.394Z,61.79
2019-04-06T03:00:22.387Z,61.79
2019-04-06T03:01:22.371Z,61.38
2019-04-06T03:02:22.362Z,61.89
2019-04-06T03:03:22.355Z,60.98
2019-04-06T03:04:22.338Z,61.59
2019-04-06T03:05:22.331Z,61.38
2019-04-06T03:06:22.315Z,61.38
2019-04-06T03:07:22.306Z,61.59
2019-04-06T03:08:22.330Z,62.20
2019-04-06T03:09:22.285Z,61.48
2019-04-06T03:10:22.274Z,61.48
2019-04-06T03:11:22.263Z,61.99
2019-04-06T03:12:22.248Z,62.09
2019-04-06T03:13:22.380Z,62.20
2019-04-06T03:14:22.223Z,62.09
2019-04-06T03:15:22.239Z,62.12
2019-04-06T03:16:22.210Z,61.41
2019-04-06T03:17:22.202Z,62.12
2019-04-06T03:18:22.353Z,61.82
2019-04-06T03:19:22.173Z,62.12
2019-04-06T03:20:22.156Z,62.43
2019-04-06T03:21:22.146Z,62.23
2019-04-06T03:22:22.173Z,62.23
2019-04-06T03:24:22.113Z,62.23
2019-04-06T03:25:22.324Z,62.23
2019-04-06T03:26:22.086Z,62.32
2019-04-06T03:27:22.077Z,62.12
2019-04-06T03:28:22.089Z,62.12
2019-04-06T03:29:22.258Z,62.32
2019-04-06T03:30:22.043Z,62.43
2019-04-06T03:31:25.470Z,62.32
2019-04-06T03:32:22.033Z,62.35
2019-04-06T03:33:22.012Z,62.43
2019-04-06T03:35:22.133Z,62.35
2019-04-06T03:36:21.969Z,62.53
2019-04-06T03:37:22.006Z,62.46
2019-04-06T03:38:21.954Z,62.56
2019-04-06T03:39:21.935Z,62.35
2019-04-06T03:40:21.923Z,62.46
2019-04-06T03:41:21.958Z,62.46
2019-04-06T03:43:22.005Z,62.25
2019-04-06T03:44:21.882Z,62.25
2019-04-06T03:45:21.865Z,62.35
2019-04-06T03:46:21.855Z,62.23
2019-04-06T03:47:21.851Z,62.05
2019-04-06T03:48:21.842Z,62.25
2019-04-06T03:49:21.819Z,62.25
2019-04-06T03:50:21.808Z,62.46
2019-04-06T03:51:21.946Z,61.95
2019-04-06T03:52:21.787Z,61.95
2019-04-06T03:54:21.891Z,62.05
2019-04-06T03:55:21.756Z,62.05
2019-04-06T03:56:21.748Z,62.05
2019-04-06T03:57:21.729Z,62.12
2019-04-06T03:58:21.724Z,62.05
2019-04-06T03:59:21.710Z,61.95
2019-04-06T04:00:21.708Z,62.05
2019-04-06T04:01:21.748Z,61.95
2019-04-06T04:02:21.860Z,61.34
2019-04-06T04:03:21.676Z,61.54
2019-04-06T04:04:21.651Z,61.74
2019-04-06T04:05:21.724Z,62.15
2019-04-06T04:06:21.626Z,61.74
2019-04-06T04:07:21.611Z,61.54
2019-04-06T04:08:21.606Z,61.21
2019-04-06T04:09:21.945Z,61.23
2019-04-06T04:10:21.576Z,61.64
2019-04-06T04:11:21.571Z,61.74
2019-04-06T04:12:21.557Z,61.54
2019-04-06T04:13:21.544Z,61.23
2019-04-06T04:14:21.795Z,61.23
2019-04-06T04:15:21.518Z,61.74
2019-04-06T04:16:21.518Z,61.44
2019-04-06T04:17:21.509Z,61.44
2019-04-06T04:18:21.483Z,62.12
2019-04-06T04:19:21.472Z,62.23
2019-04-06T04:20:21.461Z,61.44
2019-04-06T04:21:21.451Z,61.64
2019-04-06T04:22:21.472Z,61.44
2019-04-06T04:23:21.441Z,61.44
2019-04-06T04:24:21.420Z,61.41
2019-04-06T04:25:21.406Z,61.74
2019-04-06T04:26:21.397Z,61.64
2019-04-06T04:27:28.347Z,61.64
2019-04-06T04:28:45.855Z,61.64
2019-04-06T04:29:45.837Z,61.64
2019-04-06T04:30:45.837Z,61.64
2019-04-06T04:31:45.873Z,62.05
2019-04-06T04:32:45.811Z,61.74
2019-04-06T04:33:45.930Z,61.85
2019-04-06T04:34:45.784Z,61.41
2019-04-06T04:35:46.077Z,61.51
2019-04-06T04:36:45.766Z,61.30
2019-04-06T04:37:45.753Z,61.23
2019-04-06T04:38:45.934Z,61.23
2019-04-06T04:39:45.731Z,61.03
2019-04-06T04:40:45.714Z,61.13
2019-04-06T04:41:45.856Z,61.23
2019-04-06T04:42:45.786Z,61.54
2019-04-06T04:43:45.682Z,61.41
2019-04-06T04:44:45.896Z,61.74
2019-04-06T04:45:45.657Z,61.13
2019-04-06T04:46:45.649Z,60.60
2019-04-06T04:47:45.645Z,61.00
2019-04-06T04:48:45.629Z,61.21
2019-04-06T04:49:45.616Z,61.21
2019-04-06T04:50:45.691Z,61.30
2019-04-06T04:51:45.592Z,61.10
2019-04-06T04:52:45.588Z,61.21
2019-04-06T04:53:45.570Z,60.60
2019-04-06T04:54:45.556Z,60.90
2019-04-06T04:55:45.546Z,60.57
2019-04-06T04:56:45.538Z,60.67
2019-04-06T04:57:45.789Z,60.60
2019-04-06T04:58:45.518Z,60.67
2019-04-06T04:59:45.501Z,59.65
2019-04-06T05:00:45.508Z,60.08
2019-04-06T05:01:45.480Z,60.36
2019-04-06T05:02:45.473Z,59.85
2019-04-06T05:03:45.596Z,59.85
2019-04-06T05:04:45.446Z,60.06
2019-04-06T05:05:45.432Z,60.06
2019-04-06T05:06:45.489Z,59.72
2019-04-06T05:07:45.414Z,59.32
2019-04-06T05:08:45.394Z,59.32
2019-04-06T05:09:45.387Z,59.22
2019-04-06T05:10:45.491Z,59.22
2019-04-06T05:11:45.365Z,58.78
2019-04-06T05:12:45.351Z,58.99
2019-04-06T05:13:45.342Z,58.58
2019-04-06T05:14:45.335Z,58.47
2019-04-06T05:15:45.319Z,58.25
2019-04-06T05:16:45.441Z,58.14
2019-04-06T05:17:45.296Z,57.53
2019-04-06T05:18:45.286Z,57.43
2019-04-06T05:19:45.274Z,57.51
2019-04-06T05:20:45.264Z,57.10
2019-04-06T05:21:45.252Z,56.77
2019-04-06T05:22:45.240Z,56.87
2019-04-06T05:23:45.460Z,56.46
2019-04-06T05:24:45.222Z,56.03
2019-04-06T05:25:45.208Z,55.62
2019-04-06T05:26:45.195Z,55.09
2019-04-06T05:27:51.837Z,54.89
2019-04-06T05:29:09.656Z,54.35
2019-04-06T05:30:09.642Z,54.33
2019-04-06T05:31:09.630Z,53.93
2019-04-06T05:32:09.620Z,54.33
2019-04-06T05:33:09.612Z,53.49
2019-04-06T05:34:09.598Z,53.27
2019-04-06T05:35:09.588Z,52.86
2019-04-06T05:36:09.584Z,52.15
2019-04-06T05:37:09.566Z,52.03
2019-04-06T05:38:09.697Z,51.92
2019-04-06T05:39:09.567Z,51.59
2019-04-06T05:40:09.763Z,51.14
2019-04-06T05:41:09.568Z,50.54
2019-04-06T05:42:09.517Z,50.11
2019-04-06T05:43:09.500Z,50.61
2019-04-06T05:44:09.492Z,49.48
2019-04-06T05:45:09.498Z,49.38
2019-04-06T05:46:09.473Z,49.15
2019-04-06T05:47:09.466Z,49.05
2019-04-06T05:48:09.445Z,48.83
2019-04-06T05:49:09.439Z,48.32
2019-04-06T05:50:09.426Z,48.02
2019-04-06T05:51:09.408Z,48.22
2019-04-06T05:52:09.399Z,47.82
2019-04-06T05:53:09.397Z,47.60
2019-04-06T05:54:09.380Z,47.47
2019-04-06T05:55:09.367Z,46.86
2019-04-06T05:56:09.353Z,46.54
2019-04-06T05:57:09.422Z,46.34
2019-04-06T05:58:10.642Z,46.34
2019-04-06T05:59:10.261Z,46.22
2019-04-06T06:00:10.564Z,45.41
2019-04-06T06:01:10.947Z,45.19
2019-04-06T06:02:10.048Z,44.79
2019-04-06T06:03:10.797Z,45.07
2019-04-06T06:04:10.811Z,45.26
2019-04-06T06:05:10.519Z,45.17
2019-04-06T06:06:09.294Z,44.24
2019-04-06T06:07:09.232Z,44.54
2019-04-06T06:08:09.221Z,43.23
2019-04-06T06:09:09.211Z,43.62
2019-04-06T06:10:09.195Z,44.02
2019-04-06T06:11:09.198Z,43.42
2019-04-06T06:12:09.311Z,43.51
2019-04-06T06:13:09.164Z,43.62
2019-04-06T06:14:09.150Z,43.82
2019-04-06T06:15:09.142Z,43.51
2019-04-06T06:16:11.514Z,43.40
2019-04-06T06:17:09.121Z,43.49
2019-04-06T06:18:09.119Z,43.07
2019-04-06T06:19:09.121Z,42.05
2019-04-06T06:20:09.119Z,42.53
2019-04-06T06:21:09.123Z,41.63
2019-04-06T06:22:09.067Z,41.00
2019-04-06T06:23:09.152Z,41.41
2019-04-06T06:24:09.065Z,41.59
2019-04-06T06:25:09.073Z,41.39
2019-04-06T06:26:09.022Z,41.29
2019-04-06T06:27:09.017Z,41.49
2019-04-06T06:28:14.200Z,41.08
2019-04-06T06:29:10.006Z,41.00
2019-04-06T06:30:09.011Z,41.31
2019-04-06T06:31:08.964Z,41.00
2019-04-06T06:32:08.960Z,40.99
2019-04-06T06:33:08.968Z,41.19
2019-04-06T06:34:08.938Z,40.67
2019-04-06T06:35:08.926Z,39.75
2019-04-06T06:36:08.911Z,39.64
2019-04-06T06:37:08.899Z,40.05
2019-04-06T06:38:08.900Z,39.41
2019-04-06T06:39:08.876Z,39.11
2019-04-06T06:40:08.867Z,39.01
2019-04-06T06:41:08.855Z,39.09
2019-04-06T06:42:08.841Z,38.90
2019-04-06T06:43:09.198Z,38.89
2019-04-06T06:44:09.160Z,39.09
2019-04-06T06:45:08.848Z,38.99
2019-04-06T06:46:08.869Z,38.79
2019-04-06T06:47:08.788Z,38.36
2019-04-06T06:48:08.774Z,37.93
2019-04-06T06:49:08.991Z,37.22
2019-04-06T06:50:08.754Z,37.20
2019-04-06T06:51:08.773Z,37.30
2019-04-06T06:52:08.743Z,36.70
2019-04-06T06:53:08.722Z,36.68
2019-04-06T06:54:08.704Z,36.68
2019-04-06T06:55:08.699Z,35.87
2019-04-06T06:56:08.774Z,36.57
2019-04-06T06:57:08.778Z,35.75
2019-04-06T06:58:09.025Z,35.75
2019-04-06T06:59:08.652Z,35.87
2019-04-06T07:00:08.648Z,35.87
2019-04-06T07:01:08.646Z,35.85
2019-04-06T07:02:08.620Z,35.95
2019-04-06T07:03:08.612Z,35.97
2019-04-06T07:04:08.602Z,36.27
2019-04-06T07:05:08.587Z,36.07
2019-04-06T07:06:08.573Z,35.26
2019-04-06T07:07:08.565Z,34.96
2019-04-06T07:08:08.556Z,35.33
2019-04-06T07:09:08.540Z,34.52
2019-04-06T07:10:08.651Z,35.10
2019-04-06T07:11:08.518Z,34.80
2019-04-06T07:12:08.643Z,34.19
2019-04-06T07:13:08.499Z,33.48
2019-04-06T07:14:08.515Z,33.55
2019-04-06T07:15:08.513Z,32.75
2019-04-06T07:16:08.472Z,32.94
2019-04-06T07:17:08.459Z,33.23
2019-04-06T07:18:08.462Z,32.42
2019-04-06T07:19:08.429Z,32.61
2019-04-06T07:20:08.427Z,32.08
2019-04-06T07:21:08.414Z,32.08
2019-04-06T07:22:08.409Z,30.98
2019-04-06T07:23:08.385Z,30.76
2019-04-06T07:24:08.374Z,31.06
2019-04-06T07:25:08.365Z,30.35
2019-04-06T07:26:08.354Z,30.93
2019-04-06T07:27:08.351Z,30.23
2019-04-06T07:28:08.338Z,30.11
2019-04-06T07:29:08.321Z,29.52
2019-04-06T07:30:08.308Z,29.62
2019-04-06T07:31:08.310Z,29.70
2019-04-06T07:32:08.287Z,29.19
2019-04-06T07:33:08.282Z,28.69
2019-04-06T07:34:08.264Z,28.59
2019-04-06T07:35:08.294Z,28.82
2019-04-06T07:36:08.243Z,29.82
2019-04-06T07:37:08.244Z,29.13
2019-04-06T07:38:08.221Z,29.62
2019-04-06T07:39:08.211Z,29.52
2019-04-06T07:40:08.229Z,29.62
2019-04-06T07:41:08.363Z,29.90
2019-04-06T07:42:08.179Z,28.82
2019-04-06T07:43:08.390Z,28.73
2019-04-06T07:44:08.154Z,28.63
2019-04-06T07:45:08.145Z,29.65
2019-04-06T07:46:08.293Z,30.34
2019-04-06T07:47:08.194Z,29.76
2019-04-06T07:48:08.115Z,29.76
2019-04-06T07:49:10.016Z,29.63
2019-04-06T07:50:08.092Z,29.55
2019-04-06T07:51:08.201Z,30.13
2019-04-06T07:52:08.065Z,29.54
2019-04-06T07:53:08.054Z,29.91
2019-04-06T07:54:08.327Z,29.21
2019-04-06T07:55:08.094Z,29.28
2019-04-06T07:56:08.164Z,28.36
2019-04-06T07:57:08.009Z,27.87
2019-04-06T07:58:08.000Z,28.38
2019-04-06T07:59:07.998Z,27.67
2019-04-06T08:00:07.979Z,28.07
2019-04-06T08:01:07.971Z,28.36
2019-04-06T08:02:07.955Z,28.58
2019-04-06T08:03:07.947Z,28.46
2019-04-06T08:04:07.941Z,27.36
2019-04-06T08:05:08.016Z,28.14
2019-04-06T08:06:07.913Z,27.34
2019-04-06T08:07:07.908Z,27.05
2019-04-06T08:08:07.982Z,27.05
2019-04-06T08:09:07.879Z,27.33
2019-04-06T08:10:07.870Z,26.03
2019-04-06T08:11:08.068Z,26.32
2019-04-06T08:12:07.851Z,26.04
2019-04-06T08:13:07.837Z,26.93
2019-04-06T08:14:07.836Z,27.05
2019-04-06T08:15:07.817Z,27.44
2019-04-06T08:16:07.808Z,27.05
2019-04-06T08:17:07.796Z,26.92
2019-04-06T08:18:07.794Z,27.31
2019-04-06T08:19:07.771Z,26.70
2019-04-06T08:20:07.763Z,26.50
2019-04-06T08:21:07.756Z,25.61
2019-04-06T08:22:07.765Z,26.11
2019-04-06T08:23:07.733Z,26.32
2019-04-06T08:24:07.725Z,26.34
2019-04-06T08:25:07.706Z,26.06
2019-04-06T08:26:07.696Z,27.35
2019-04-06T08:27:07.895Z,26.87
2019-04-06T08:28:07.678Z,26.87
2019-04-06T08:29:07.678Z,26.97
2019-04-06T08:30:07.681Z,26.86
2019-04-06T08:31:07.647Z,26.64
2019-04-06T08:32:07.631Z,26.15
2019-04-06T08:33:07.719Z,26.53
2019-04-06T08:34:07.613Z,26.20
2019-04-06T08:35:07.599Z,25.72
2019-04-06T08:36:07.586Z,25.92
2019-04-06T08:37:07.585Z,25.93
2019-04-06T08:38:07.568Z,26.62
2019-04-06T08:39:07.558Z,26.34
2019-04-06T08:40:07.546Z,26.54
2019-04-06T08:41:07.532Z,26.14
2019-04-06T08:42:07.680Z,26.62
2019-04-06T08:43:07.510Z,26.62
2019-04-06T08:44:07.507Z,26.72
2019-04-06T08:45:07.495Z,26.72
2019-04-06T08:46:07.479Z,26.11
2019-04-06T08:47:07.486Z,25.90
2019-04-06T08:48:07.620Z,26.47
2019-04-06T08:49:07.449Z,25.37
2019-04-06T08:50:07.441Z,25.07
2019-04-06T08:51:07.426Z,24.48
2019-04-06T08:52:07.419Z,24.29
2019-04-06T08:53:07.414Z,25.28
2019-04-06T08:54:07.547Z,25.48
2019-04-06T08:55:07.388Z,25.19
2019-04-06T08:56:07.596Z,25.18
2019-04-06T08:57:07.405Z,25.28
2019-04-06T08:58:07.355Z,25.40
2019-04-06T08:59:12.147Z,25.08
2019-04-06T09:00:07.328Z,24.56
2019-04-06T09:01:07.319Z,24.45
2019-04-06T09:02:07.320Z,23.66
2019-04-06T09:03:07.300Z,23.95
2019-04-06T09:04:07.286Z,23.87
2019-04-06T09:05:07.434Z,23.66
2019-04-06T09:06:07.268Z,24.34
2019-04-06T09:07:07.262Z,23.77
2019-04-06T09:08:07.253Z,24.07
2019-04-06T09:09:07.232Z,24.57
2019-04-06T09:10:07.476Z,24.66
2019-04-06T09:11:07.214Z,24.37
2019-04-06T09:12:07.202Z,24.37
2019-04-06T09:13:07.192Z,24.45
2019-04-06T09:14:07.216Z,24.23
2019-04-06T09:15:07.168Z,24.02
2019-04-06T09:16:07.315Z,23.71
2019-04-06T09:17:07.376Z,22.91
2019-04-06T09:18:07.143Z,23.01
2019-04-06T09:19:07.132Z,23.09
2019-04-06T09:20:07.128Z,23.02
2019-04-06T09:21:07.106Z,23.13
2019-04-06T09:22:07.235Z,23.90
2019-04-06T09:23:07.086Z,22.43
2019-04-06T09:24:07.074Z,22.85
2019-04-06T09:25:07.070Z,24.53
2019-04-06T09:26:07.285Z,23.85
2019-04-06T09:27:07.049Z,24.05
2019-04-06T09:28:07.035Z,24.73
2019-04-06T09:29:07.023Z,24.44
2019-04-06T09:30:07.126Z,24.16
2019-04-06T09:31:07.008Z,23.95
2019-04-06T09:32:06.992Z,23.76
2019-04-06T09:33:07.030Z,23.95
2019-04-06T09:34:06.974Z,23.65
2019-04-06T09:35:06.961Z,22.67
2019-04-06T09:36:06.953Z,23.16
2019-04-06T09:37:07.123Z,22.96
2019-04-06T09:38:06.932Z,23.07
2019-04-06T09:39:06.917Z,23.94
2019-04-06T09:40:07.164Z,23.35
2019-04-06T09:41:07.008Z,24.04
2019-04-06T09:42:06.885Z,23.44
2019-04-06T09:43:06.876Z,22.93
2019-04-06T09:44:06.864Z,23.02
2019-04-06T09:45:06.854Z,22.93
2019-04-06T09:46:07.091Z,23.24
2019-04-06T09:47:06.847Z,23.14
2019-04-06T09:48:06.826Z,22.76
2019-04-06T09:49:06.809Z,22.95
2019-04-06T09:50:06.813Z,22.77
2019-04-06T09:51:06.789Z,22.96
2019-04-06T09:52:06.813Z,23.16
2019-04-06T09:53:06.773Z,22.77
2019-04-06T09:54:07.632Z,22.78
2019-04-06T09:55:06.751Z,22.97
2019-04-06T09:56:06.737Z,23.95
2019-04-06T09:57:06.733Z,22.85
2019-04-06T09:58:06.720Z,23.84
2019-04-06T09:59:06.705Z,23.83
2019-04-06T10:00:06.699Z,23.22
2019-04-06T10:01:06.903Z,22.55
2019-04-06T10:02:06.720Z,23.14
2019-04-06T10:03:06.669Z,23.13
2019-04-06T10:04:06.657Z,23.42
2019-04-06T10:05:06.650Z,23.12
2019-04-06T10:06:06.683Z,23.12
2019-04-06T10:07:06.626Z,22.25
2019-04-06T10:08:06.724Z,23.14
2019-04-06T10:09:06.603Z,23.54
2019-04-06T10:10:06.589Z,23.16
2019-04-06T10:11:06.775Z,23.07
2019-04-06T10:12:06.577Z,22.94
2019-04-06T10:13:06.563Z,22.85
2019-04-06T10:14:06.548Z,23.05
2019-04-06T10:15:06.544Z,22.86
2019-04-06T10:16:06.531Z,22.94
2019-04-06T10:17:06.517Z,23.12
2019-04-06T10:18:06.520Z,22.82
2019-04-06T10:19:06.594Z,22.82
2019-04-06T10:20:06.487Z,22.81
2019-04-06T10:21:06.522Z,22.52
2019-04-06T10:22:06.466Z,21.83
2019-04-06T10:23:06.464Z,22.52
2019-04-06T10:24:06.499Z,21.63
2019-04-06T10:25:06.461Z,22.41
2019-04-06T10:26:06.431Z,21.92
2019-04-06T10:27:06.414Z,22.03
2019-04-06T10:28:06.407Z,21.65
2019-04-06T10:29:06.392Z,21.76
2019-04-06T10:30:06.399Z,22.46
2019-04-06T10:31:06.379Z,21.96
2019-04-06T10:32:06.370Z,21.87
2019-04-06T10:33:06.403Z,22.07
2019-04-06T10:34:06.342Z,21.66
2019-04-06T10:35:06.333Z,21.63
2019-04-06T10:36:06.534Z,22.03
2019-04-06T10:37:06.449Z,21.96
2019-04-06T10:38:06.489Z,22.54
2019-04-06T10:39:06.295Z,21.73
2019-04-06T10:40:06.365Z,22.03
2019-04-06T10:41:06.268Z,22.04
2019-04-06T10:42:06.260Z,21.96
2019-04-06T10:43:06.297Z,22.76
2019-04-06T10:44:06.237Z,23.34
2019-04-06T10:45:06.228Z,22.75
2019-04-06T10:46:06.240Z,22.46
2019-04-06T10:47:06.209Z,22.64
2019-04-06T10:48:06.358Z,22.54
2019-04-06T10:49:06.188Z,22.44
2019-04-06T10:50:06.176Z,22.94
2019-04-06T10:51:06.235Z,23.04
2019-04-06T10:52:06.180Z,23.04
2019-04-06T10:53:06.153Z,22.63
2019-04-06T10:54:06.140Z,22.32
2019-04-06T10:55:06.154Z,22.61
2019-04-06T10:56:06.124Z,21.73
2019-04-06T10:57:06.107Z,22.91
2019-04-06T10:58:06.105Z,22.83
2019-04-06T10:59:06.085Z,23.13
2019-04-06T11:00:06.488Z,22.94
2019-04-06T11:01:06.067Z,23.14
2019-04-06T11:02:06.057Z,23.13
2019-04-06T11:03:06.053Z,23.42
2019-04-06T11:04:06.047Z,22.33
2019-04-06T11:05:06.022Z,22.93
2019-04-06T11:06:06.014Z,23.14
2019-04-06T11:07:06.005Z,23.34
2019-04-06T11:08:06.018Z,23.04
2019-04-06T11:09:05.981Z,23.05
2019-04-06T11:10:05.974Z,22.85
2019-04-06T11:11:05.967Z,23.04
2019-04-06T11:12:05.955Z,23.34
2019-04-06T11:13:05.942Z,23.04
2019-04-06T11:14:05.940Z,22.26
2019-04-06T11:15:05.980Z,23.02
2019-04-06T11:16:05.910Z,21.35
2019-04-06T11:17:05.901Z,22.52
2019-04-06T11:18:05.890Z,22.72
2019-04-06T11:19:05.881Z,22.72
2019-04-06T11:20:05.870Z,22.53
2019-04-06T11:21:05.868Z,22.63
2019-04-06T11:22:05.847Z,22.42
2019-04-06T11:23:05.849Z,22.32
2019-04-06T11:24:06.141Z,23.41
2019-04-06T11:25:06.010Z,23.02
2019-04-06T11:26:06.017Z,22.92
2019-04-06T11:27:05.910Z,23.21
2019-04-06T11:28:05.788Z,23.12
2019-04-06T11:29:05.778Z,22.93
2019-04-06T11:30:13.201Z,23.12
2019-04-06T11:31:30.269Z,23.02
2019-04-06T11:32:30.225Z,22.93
2019-04-06T11:33:30.258Z,23.14
2019-04-06T11:34:30.201Z,22.83
2019-04-06T11:35:30.206Z,22.82
2019-04-06T11:36:30.182Z,22.24
2019-04-06T11:37:30.187Z,23.13
2019-04-06T11:38:30.194Z,22.53
2019-04-06T11:39:30.192Z,22.71
2019-04-06T11:40:30.447Z,21.64
2019-04-06T11:41:30.134Z,22.13
2019-04-06T11:42:30.299Z,21.05
2019-04-06T11:43:30.138Z,21.13
2019-04-06T11:44:30.146Z,21.92
2019-04-06T11:45:30.267Z,22.02
2019-04-06T11:46:30.073Z,21.63
2019-04-06T11:47:30.066Z,22.01
2019-04-06T11:48:30.054Z,21.41
2019-04-06T11:49:30.055Z,21.90
2019-04-06T11:50:30.035Z,20.91
2019-04-06T11:51:30.027Z,20.89
2019-04-06T11:52:30.037Z,20.71
2019-04-06T11:53:30.004Z,20.92
2019-04-06T11:54:29.992Z,21.31
2019-04-06T11:55:29.988Z,22.00
2019-04-06T11:56:29.976Z,22.21
2019-04-06T11:57:29.971Z,21.22
2019-04-06T11:58:29.956Z,21.90
2019-04-06T11:59:30.270Z,21.51
2019-04-06T12:00:29.998Z,20.94
2019-04-06T12:01:29.929Z,21.83
2019-04-06T12:02:29.914Z,21.93
2019-04-06T12:03:29.903Z,22.43
2019-04-06T12:04:29.902Z,21.96
2019-04-06T12:05:29.885Z,22.64
2019-04-06T12:06:29.873Z,22.65
2019-04-06T12:07:29.864Z,21.74
2019-04-06T12:08:29.857Z,21.62
2019-04-06T12:09:29.843Z,22.01
2019-04-06T12:10:29.831Z,21.62
2019-04-06T12:11:29.825Z,22.13
2019-04-06T12:12:29.811Z,21.66
2019-04-06T12:13:29.937Z,22.55
2019-04-06T12:14:29.793Z,22.85
2019-04-06T12:15:29.783Z,23.24
2019-04-06T12:16:30.022Z,23.43
2019-04-06T12:17:29.795Z,21.65
2019-04-06T12:18:29.748Z,22.53
2019-04-06T12:19:29.741Z,21.64
2019-04-06T12:20:29.729Z,22.61
2019-04-06T12:21:29.718Z,21.64
2019-04-06T12:22:29.706Z,21.64
2019-04-06T12:23:32.644Z,21.93
2019-04-06T12:24:29.691Z,21.15
2019-04-06T12:25:29.676Z,21.65
2019-04-06T12:26:29.671Z,21.85
2019-04-06T12:27:29.670Z,21.86
2019-04-06T12:28:29.986Z,22.56
2019-04-06T12:29:29.647Z,22.96
2019-04-06T12:30:37.288Z,22.99
2019-04-06T12:31:30.653Z,23.17
2019-04-06T12:32:29.905Z,22.69
2019-04-06T12:33:29.637Z,22.88
2019-04-06T12:34:29.586Z,23.17
2019-04-06T12:35:29.577Z,23.76
2019-04-06T12:36:29.669Z,23.26
2019-04-06T12:37:29.552Z,23.26
2019-04-06T12:38:29.542Z,22.88
2019-04-06T12:39:29.535Z,23.18
2019-04-06T12:40:29.524Z,22.90
2019-04-06T12:41:29.512Z,24.28
2019-04-06T12:42:29.689Z,23.30
2019-04-06T12:43:31.220Z,23.88
2019-04-06T12:44:29.484Z,24.57
2019-04-06T12:45:29.474Z,24.01
2019-04-06T12:46:29.460Z,23.80
2019-04-06T12:47:29.498Z,24.00
2019-04-06T12:48:29.512Z,24.39
2019-04-06T12:49:29.435Z,23.82
2019-04-06T12:50:29.417Z,23.32
2019-04-06T12:51:29.548Z,23.83
2019-04-06T12:52:29.396Z,24.32
2019-04-06T12:53:29.390Z,24.50
2019-04-06T12:54:29.480Z,24.09
2019-04-06T12:55:29.365Z,23.89
2019-04-06T12:56:29.357Z,24.18
2019-04-06T12:57:29.348Z,23.00
2019-04-06T12:58:29.353Z,23.28
2019-04-06T12:59:29.326Z,23.11
2019-04-06T13:00:29.743Z,23.03
2019-04-06T13:01:29.300Z,23.93
2019-04-06T13:02:29.293Z,23.84
2019-04-06T13:03:29.282Z,24.73
2019-04-06T13:04:29.268Z,24.43
2019-04-06T13:05:29.304Z,24.43
2019-04-06T13:06:29.248Z,24.04
2019-04-06T13:07:29.479Z,23.94